sensor_id;sensor_type;location;lat;lon;timestamp;pressure;altitude;pressure_sealevel;temperature
8533;BMP280;4304;53.876;10.662;2022-07-29T00:00:38;115475.81;;;-139.81
8533;BMP280;4304;53.876;10.662;2022-07-29T00:03:04;115475.81;;;-139.81
8533;BMP280;4304;53.876;10.662;2022-07-29T00:05:29;115475.81;;;-139.81
8533;BMP280;4304;53.876;10.662;2022-07-29T00:07:55;115475.81;;;-139.81
8533;BMP280;4304;53.876;10.662;2022-07-29T00:10:20;115475.81;;;-139.81
8533;BMP280;4304;53.876;10.662;2022-07-29T00:12:46;115475.81;;;-139.81
8533;BMP280;4304;53.876;10.662;2022-07-29T00:15:11;115475.81;;;-139.81
8533;BMP280;4304;53.876;10.662;2022-07-29T00:17:37;115475.81;;;-139.81
8533;BMP280;4304;53.876;10.662;2022-07-29T00:20:03;115475.81;;;-139.81
8533;BMP280;4304;53.876;10.662;2022-07-29T00:22:29;115475.81;;;-139.81
8533;BMP280;4304;53.876;10.662;2022-07-29T00:24:54;115475.81;;;-139.81
8533;BMP280;4304;53.876;10.662;2022-07-29T00:27:19;115475.81;;;-139.81
8533;BMP280;4304;53.876;10.662;2022-07-29T00:29:45;115475.81;;;-139.81
8533;BMP280;4304;53.876;10.662;2022-07-29T00:32:10;115475.81;;;-139.81
8533;BMP280;4304;53.876;10.662;2022-07-29T00:34:37;115475.81;;;-139.81
8533;BMP280;4304;53.876;10.662;2022-07-29T00:37:21;115475.81;;;-139.81
8533;BMP280;4304;53.876;10.662;2022-07-29T00:39:46;115475.81;;;-139.81
8533;BMP280;4304;53.876;10.662;2022-07-29T00:42:12;115475.81;;;-139.81
8533;BMP280;4304;53.876;10.662;2022-07-29T00:44:40;115475.81;;;-139.81
8533;BMP280;4304;53.876;10.662;2022-07-29T00:47:07;115475.81;;;-139.81
8533;BMP280;4304;53.876;10.662;2022-07-29T00:49:32;115475.81;;;-139.81
8533;BMP280;4304;53.876;10.662;2022-07-29T00:52:01;115475.81;;;-139.81
8533;BMP280;4304;53.876;10.662;2022-07-29T00:54:26;115475.81;;;-139.81
8533;BMP280;4304;53.876;10.662;2022-07-29T00:56:52;115216.22;;;-139.81
8533;BMP280;4304;53.876;10.662;2022-07-29T00:59:17;115216.22;;;-139.81
8533;BMP280;4304;53.876;10.662;2022-07-29T01:01:42;115216.22;;;-139.81
8533;BMP280;4304;53.876;10.662;2022-07-29T01:04:08;115216.22;;;-139.81
8533;BMP280;4304;53.876;10.662;2022-07-29T01:06:34;115216.22;;;-139.81
8533;BMP280;4304;53.876;10.662;2022-07-29T01:09:00;115216.22;;;-139.81
8533;BMP280;4304;53.876;10.662;2022-07-29T01:11:25;115216.22;;;-139.81
8533;BMP280;4304;53.876;10.662;2022-07-29T01:13:51;115216.22;;;-139.81
8533;BMP280;4304;53.876;10.662;2022-07-29T01:16:32;115216.22;;;-139.81
8533;BMP280;4304;53.876;10.662;2022-07-29T01:19:16;115216.22;;;-139.81
8533;BMP280;4304;53.876;10.662;2022-07-29T01:29:55;115216.22;;;-139.81
8533;BMP280;4304;53.876;10.662;2022-07-29T01:32:28;115216.22;;;-139.81
8533;BMP280;4304;53.876;10.662;2022-07-29T01:37:32;114956.66;;;-139.81
8533;BMP280;4304;53.876;10.662;2022-07-29T01:39:59;114956.66;;;-139.81
8533;BMP280;4304;53.876;10.662;2022-07-29T01:42:42;114956.66;;;-139.81
8533;BMP280;4304;53.876;10.662;2022-07-29T01:45:17;115216.22;;;-139.81
8533;BMP280;4304;53.876;10.662;2022-07-29T01:47:46;114956.66;;;-139.81
8533;BMP280;4304;53.876;10.662;2022-07-29T01:50:16;114956.66;;;-139.81
8533;BMP280;4304;53.876;10.662;2022-07-29T01:52:47;114956.66;;;-139.81
8533;BMP280;4304;53.876;10.662;2022-07-29T01:55:15;114956.66;;;-139.81
8533;BMP280;4304;53.876;10.662;2022-07-29T01:57:43;114956.66;;;-139.81
8533;BMP280;4304;53.876;10.662;2022-07-29T02:00:09;114956.66;;;-139.81
8533;BMP280;4304;53.876;10.662;2022-07-29T02:02:37;114956.66;;;-139.81
8533;BMP280;4304;53.876;10.662;2022-07-29T02:05:05;114956.66;;;-139.81
8533;BMP280;4304;53.876;10.662;2022-07-29T02:07:33;114956.66;;;-139.81
8533;BMP280;4304;53.876;10.662;2022-07-29T02:10:00;114956.66;;;-139.81
8533;BMP280;4304;53.876;10.662;2022-07-29T02:12:27;114956.66;;;-139.81
8533;BMP280;4304;53.876;10.662;2022-07-29T02:14:56;114956.66;;;-139.81
8533;BMP280;4304;53.876;10.662;2022-07-29T02:17:27;114956.66;;;-139.81
8533;BMP280;4304;53.876;10.662;2022-07-29T02:19:57;114956.66;;;-139.81
8533;BMP280;4304;53.876;10.662;2022-07-29T02:22:23;114697.09;;;-139.81
8533;BMP280;4304;53.876;10.662;2022-07-29T02:24:50;114956.66;;;-139.81
8533;BMP280;4304;53.876;10.662;2022-07-29T02:27:17;114697.09;;;-139.81
8533;BMP280;4304;53.876;10.662;2022-07-29T02:29:43;114697.09;;;-139.81
8533;BMP280;4304;53.876;10.662;2022-07-29T02:32:10;114697.09;;;-139.81
8533;BMP280;4304;53.876;10.662;2022-07-29T02:34:38;114697.09;;;-139.81
8533;BMP280;4304;53.876;10.662;2022-07-29T02:37:04;114697.09;;;-139.81
8533;BMP280;4304;53.876;10.662;2022-07-29T02:39:34;114956.66;;;-139.81
8533;BMP280;4304;53.876;10.662;2022-07-29T02:42:03;114697.09;;;-139.81
8533;BMP280;4304;53.876;10.662;2022-07-29T02:44:30;114697.09;;;-139.81
8533;BMP280;4304;53.876;10.662;2022-07-29T02:47:05;114697.09;;;-139.81
8533;BMP280;4304;53.876;10.662;2022-07-29T02:49:36;114697.09;;;-139.81
8533;BMP280;4304;53.876;10.662;2022-07-29T02:52:16;114697.09;;;-139.81
8533;BMP280;4304;53.876;10.662;2022-07-29T02:57:33;114956.66;;;-139.81
8533;BMP280;4304;53.876;10.662;2022-07-29T03:00:05;114956.66;;;-139.81
8533;BMP280;4304;53.876;10.662;2022-07-29T03:02:41;114956.66;;;-139.81
8533;BMP280;4304;53.876;10.662;2022-07-29T03:05:09;114697.09;;;-139.81
8533;BMP280;4304;53.876;10.662;2022-07-29T03:07:36;114697.09;;;-139.81
8533;BMP280;4304;53.876;10.662;2022-07-29T03:10:03;114697.09;;;-139.81
8533;BMP280;4304;53.876;10.662;2022-07-29T03:12:29;114697.09;;;-139.81
8533;BMP280;4304;53.876;10.662;2022-07-29T03:14:55;114697.09;;;-139.81
8533;BMP280;4304;53.876;10.662;2022-07-29T03:17:21;114697.09;;;-139.81
8533;BMP280;4304;53.876;10.662;2022-07-29T03:19:47;114697.09;;;-139.81
8533;BMP280;4304;53.876;10.662;2022-07-29T03:22:13;114697.09;;;-139.81
8533;BMP280;4304;53.876;10.662;2022-07-29T03:24:39;114697.09;;;-139.81
8533;BMP280;4304;53.876;10.662;2022-07-29T03:27:04;114697.09;;;-139.81
8533;BMP280;4304;53.876;10.662;2022-07-29T03:29:31;114697.09;;;-139.81
8533;BMP280;4304;53.876;10.662;2022-07-29T03:31:56;114697.09;;;-139.81
8533;BMP280;4304;53.876;10.662;2022-07-29T03:34:22;114956.66;;;-139.81
8533;BMP280;4304;53.876;10.662;2022-07-29T03:36:48;114697.09;;;-139.81
8533;BMP280;4304;53.876;10.662;2022-07-29T03:39:17;114697.09;;;-139.81
8533;BMP280;4304;53.876;10.662;2022-07-29T03:41:44;114697.09;;;-139.81
8533;BMP280;4304;53.876;10.662;2022-07-29T03:44:11;114697.09;;;-139.81
8533;BMP280;4304;53.876;10.662;2022-07-29T03:46:38;114956.66;;;-139.81
8533;BMP280;4304;53.876;10.662;2022-07-29T03:49:05;114956.66;;;-139.81
8533;BMP280;4304;53.876;10.662;2022-07-29T03:51:33;114956.66;;;-139.81
8533;BMP280;4304;53.876;10.662;2022-07-29T03:53:59;114956.66;;;-139.81
8533;BMP280;4304;53.876;10.662;2022-07-29T03:56:25;114956.66;;;-139.81
8533;BMP280;4304;53.876;10.662;2022-07-29T03:58:52;114956.66;;;-139.81
8533;BMP280;4304;53.876;10.662;2022-07-29T04:01:18;114956.66;;;-139.81
8533;BMP280;4304;53.876;10.662;2022-07-29T04:03:44;114956.66;;;-139.81
8533;BMP280;4304;53.876;10.662;2022-07-29T04:06:11;114956.66;;;-139.81
8533;BMP280;4304;53.876;10.662;2022-07-29T04:08:36;114956.66;;;-139.81
8533;BMP280;4304;53.876;10.662;2022-07-29T04:11:03;114956.66;;;-139.81
8533;BMP280;4304;53.876;10.662;2022-07-29T04:13:29;115216.22;;;-139.81
8533;BMP280;4304;53.876;10.662;2022-07-29T04:15:54;115216.22;;;-139.81
8533;BMP280;4304;53.876;10.662;2022-07-29T04:18:20;115216.22;;;-139.81
8533;BMP280;4304;53.876;10.662;2022-07-29T04:20:45;115216.22;;;-139.81
8533;BMP280;4304;53.876;10.662;2022-07-29T04:23:12;115216.22;;;-139.81
8533;BMP280;4304;53.876;10.662;2022-07-29T04:25:38;115216.22;;;-139.81
8533;BMP280;4304;53.876;10.662;2022-07-29T04:28:04;115216.22;;;-139.81
8533;BMP280;4304;53.876;10.662;2022-07-29T04:30:30;115216.22;;;-139.81
8533;BMP280;4304;53.876;10.662;2022-07-29T04:32:55;115216.22;;;-139.81
8533;BMP280;4304;53.876;10.662;2022-07-29T04:35:21;115216.22;;;-139.81
8533;BMP280;4304;53.876;10.662;2022-07-29T04:37:47;115216.22;;;-139.81
8533;BMP280;4304;53.876;10.662;2022-07-29T04:40:12;115216.22;;;-139.81
8533;BMP280;4304;53.876;10.662;2022-07-29T04:42:38;115216.22;;;-139.81
8533;BMP280;4304;53.876;10.662;2022-07-29T04:45:05;115475.81;;;-139.81
8533;BMP280;4304;53.876;10.662;2022-07-29T04:47:30;115475.81;;;-139.81
8533;BMP280;4304;53.876;10.662;2022-07-29T04:49:56;115475.81;;;-139.81
8533;BMP280;4304;53.876;10.662;2022-07-29T04:52:22;115475.81;;;-139.81
8533;BMP280;4304;53.876;10.662;2022-07-29T04:54:47;115475.81;;;-139.81
8533;BMP280;4304;53.876;10.662;2022-07-29T04:57:13;115475.81;;;-139.81
8533;BMP280;4304;53.876;10.662;2022-07-29T04:59:38;115475.81;;;-139.81
8533;BMP280;4304;53.876;10.662;2022-07-29T05:02:04;115735.44;;;-139.81
8533;BMP280;4304;53.876;10.662;2022-07-29T05:04:29;115475.81;;;-139.81
8533;BMP280;4304;53.876;10.662;2022-07-29T05:06:54;115735.44;;;-139.81
8533;BMP280;4304;53.876;10.662;2022-07-29T05:09:20;115735.44;;;-139.81
8533;BMP280;4304;53.876;10.662;2022-07-29T05:11:45;115735.44;;;-139.81
8533;BMP280;4304;53.876;10.662;2022-07-29T05:14:10;115735.44;;;-139.81
8533;BMP280;4304;53.876;10.662;2022-07-29T05:16:36;115735.44;;;-139.81
8533;BMP280;4304;53.876;10.662;2022-07-29T05:19:01;115735.44;;;-139.81
8533;BMP280;4304;53.876;10.662;2022-07-29T05:21:27;115735.44;;;-139.81
8533;BMP280;4304;53.876;10.662;2022-07-29T05:23:52;115735.44;;;-139.81
8533;BMP280;4304;53.876;10.662;2022-07-29T05:26:17;115735.44;;;-139.81
8533;BMP280;4304;53.876;10.662;2022-07-29T05:28:43;115735.44;;;-139.81
8533;BMP280;4304;53.876;10.662;2022-07-29T05:31:08;115735.44;;;-139.81
8533;BMP280;4304;53.876;10.662;2022-07-29T05:33:33;115735.44;;;-139.81
8533;BMP280;4304;53.876;10.662;2022-07-29T05:35:59;115995.09;;;-139.81
8533;BMP280;4304;53.876;10.662;2022-07-29T05:38:26;115995.09;;;-139.81
8533;BMP280;4304;53.876;10.662;2022-07-29T05:40:52;115995.09;;;-139.81
8533;BMP280;4304;53.876;10.662;2022-07-29T05:43:17;116254.75;;;-139.81
8533;BMP280;4304;53.876;10.662;2022-07-29T05:45:43;115995.09;;;-139.81
8533;BMP280;4304;53.876;10.662;2022-07-29T05:48:08;116254.75;;;-139.81
8533;BMP280;4304;53.876;10.662;2022-07-29T05:50:34;116254.75;;;-139.81
8533;BMP280;4304;53.876;10.662;2022-07-29T05:52:59;116514.44;;;-139.81
8533;BMP280;4304;53.876;10.662;2022-07-29T05:55:24;116514.44;;;-139.81
8533;BMP280;4304;53.876;10.662;2022-07-29T05:57:52;116514.44;;;-139.81
8533;BMP280;4304;53.876;10.662;2022-07-29T06:00:17;116514.44;;;-139.81
8533;BMP280;4304;53.876;10.662;2022-07-29T06:02:42;116514.44;;;-139.81
8533;BMP280;4304;53.876;10.662;2022-07-29T06:05:08;116514.44;;;-139.81
8533;BMP280;4304;53.876;10.662;2022-07-29T06:07:34;116254.75;;;-139.81
8533;BMP280;4304;53.876;10.662;2022-07-29T06:10:00;116254.75;;;-139.81
8533;BMP280;4304;53.876;10.662;2022-07-29T06:12:25;116514.44;;;-139.81
8533;BMP280;4304;53.876;10.662;2022-07-29T06:14:51;116514.44;;;-139.81
8533;BMP280;4304;53.876;10.662;2022-07-29T06:17:17;116254.75;;;-139.81
8533;BMP280;4304;53.876;10.662;2022-07-29T06:19:42;116514.44;;;-139.81
8533;BMP280;4304;53.876;10.662;2022-07-29T06:22:08;116514.44;;;-139.81
8533;BMP280;4304;53.876;10.662;2022-07-29T06:24:33;116774.16;;;-139.81
8533;BMP280;4304;53.876;10.662;2022-07-29T06:26:59;116774.16;;;-139.81
8533;BMP280;4304;53.876;10.662;2022-07-29T06:29:25;116774.16;;;-139.81
8533;BMP280;4304;53.876;10.662;2022-07-29T06:31:50;116774.16;;;-139.81
8533;BMP280;4304;53.876;10.662;2022-07-29T06:34:17;117033.91;;;-139.81
8533;BMP280;4304;53.876;10.662;2022-07-29T06:36:43;117033.91;;;-139.81
8533;BMP280;4304;53.876;10.662;2022-07-29T06:39:09;117033.91;;;-139.81
8533;BMP280;4304;53.876;10.662;2022-07-29T06:41:34;117293.66;;;-139.81
8533;BMP280;4304;53.876;10.662;2022-07-29T06:44:00;117033.91;;;-139.81
8533;BMP280;4304;53.876;10.662;2022-07-29T06:46:26;117033.91;;;-139.81
8533;BMP280;4304;53.876;10.662;2022-07-29T06:48:52;117033.91;;;-139.81
8533;BMP280;4304;53.876;10.662;2022-07-29T06:51:19;117033.91;;;-139.81
8533;BMP280;4304;53.876;10.662;2022-07-29T06:53:45;117033.91;;;-139.81
8533;BMP280;4304;53.876;10.662;2022-07-29T06:56:10;117033.91;;;-139.81
8533;BMP280;4304;53.876;10.662;2022-07-29T06:58:38;117033.91;;;-139.81
8533;BMP280;4304;53.876;10.662;2022-07-29T07:01:05;116774.16;;;-139.81
8533;BMP280;4304;53.876;10.662;2022-07-29T07:03:31;116774.16;;;-139.81
8533;BMP280;4304;53.876;10.662;2022-07-29T07:05:57;116774.16;;;-139.81
8533;BMP280;4304;53.876;10.662;2022-07-29T07:08:23;116774.16;;;-139.81
8533;BMP280;4304;53.876;10.662;2022-07-29T07:10:50;117033.91;;;-139.81
8533;BMP280;4304;53.876;10.662;2022-07-29T07:13:15;117033.91;;;-139.81
8533;BMP280;4304;53.876;10.662;2022-07-29T07:15:43;116774.16;;;-139.81
8533;BMP280;4304;53.876;10.662;2022-07-29T07:18:08;116774.16;;;-139.81
8533;BMP280;4304;53.876;10.662;2022-07-29T07:20:34;117033.91;;;-139.81
8533;BMP280;4304;53.876;10.662;2022-07-29T07:23:00;117033.91;;;-139.81
8533;BMP280;4304;53.876;10.662;2022-07-29T07:25:25;117033.91;;;-139.81
8533;BMP280;4304;53.876;10.662;2022-07-29T07:27:51;117033.91;;;-139.81
8533;BMP280;4304;53.876;10.662;2022-07-29T07:30:16;117293.66;;;-139.81
8533;BMP280;4304;53.876;10.662;2022-07-29T07:32:42;117293.66;;;-139.81
8533;BMP280;4304;53.876;10.662;2022-07-29T07:35:08;117293.66;;;-139.81
8533;BMP280;4304;53.876;10.662;2022-07-29T07:37:35;117293.66;;;-139.81
8533;BMP280;4304;53.876;10.662;2022-07-29T07:40:01;117293.66;;;-139.81
8533;BMP280;4304;53.876;10.662;2022-07-29T07:42:27;117293.66;;;-139.81
8533;BMP280;4304;53.876;10.662;2022-07-29T07:44:53;117293.66;;;-139.81
8533;BMP280;4304;53.876;10.662;2022-07-29T07:47:18;117293.66;;;-139.81
8533;BMP280;4304;53.876;10.662;2022-07-29T07:49:52;117293.66;;;-139.81
8533;BMP280;4304;53.876;10.662;2022-07-29T07:52:19;117293.66;;;-139.81
8533;BMP280;4304;53.876;10.662;2022-07-29T07:54:45;117293.66;;;-139.81
8533;BMP280;4304;53.876;10.662;2022-07-29T07:57:12;117293.66;;;-139.81
8533;BMP280;4304;53.876;10.662;2022-07-29T07:59:37;117293.66;;;-139.81
8533;BMP280;4304;53.876;10.662;2022-07-29T08:02:03;117293.66;;;-139.81
8533;BMP280;4304;53.876;10.662;2022-07-29T08:04:29;117293.66;;;-139.81
8533;BMP280;4304;53.876;10.662;2022-07-29T08:06:57;117295.69;;;-139.81
8533;BMP280;4304;53.876;10.662;2022-07-29T08:09:24;117295.69;;;-139.81
8533;BMP280;4304;53.876;10.662;2022-07-29T08:11:50;117295.69;;;-139.81
8533;BMP280;4304;53.876;10.662;2022-07-29T08:14:16;117295.69;;;-139.81
8533;BMP280;4304;53.876;10.662;2022-07-29T08:16:42;117293.66;;;-139.81
8533;BMP280;4304;53.876;10.662;2022-07-29T08:19:08;117293.66;;;-139.81
8533;BMP280;4304;53.876;10.662;2022-07-29T08:21:36;117295.69;;;-139.81
8533;BMP280;4304;53.876;10.662;2022-07-29T08:24:03;117293.66;;;-139.81
8533;BMP280;4304;53.876;10.662;2022-07-29T08:26:47;117293.66;;;-139.81
8533;BMP280;4304;53.876;10.662;2022-07-29T08:29:12;117293.66;;;-139.81
8533;BMP280;4304;53.876;10.662;2022-07-29T08:31:38;117293.66;;;-139.81
8533;BMP280;4304;53.876;10.662;2022-07-29T08:34:04;117295.69;;;-139.81
8533;BMP280;4304;53.876;10.662;2022-07-29T08:36:31;117295.69;;;-139.81
8533;BMP280;4304;53.876;10.662;2022-07-29T08:38:57;117295.69;;;-139.81
8533;BMP280;4304;53.876;10.662;2022-07-29T08:41:25;117295.69;;;-139.81
8533;BMP280;4304;53.876;10.662;2022-07-29T08:43:51;117295.69;;;-139.81
8533;BMP280;4304;53.876;10.662;2022-07-29T08:46:23;117295.69;;;-139.81
8533;BMP280;4304;53.876;10.662;2022-07-29T08:48:55;117295.69;;;-139.81
8533;BMP280;4304;53.876;10.662;2022-07-29T08:51:21;117295.69;;;-139.81
8533;BMP280;4304;53.876;10.662;2022-07-29T08:53:48;117295.69;;;-139.81
8533;BMP280;4304;53.876;10.662;2022-07-29T08:56:18;117295.69;;;-139.81
8533;BMP280;4304;53.876;10.662;2022-07-29T08:58:46;117295.69;;;-139.81
8533;BMP280;4304;53.876;10.662;2022-07-29T09:01:14;117295.69;;;-139.81
8533;BMP280;4304;53.876;10.662;2022-07-29T09:03:44;117295.69;;;-139.81
8533;BMP280;4304;53.876;10.662;2022-07-29T09:06:14;117295.69;;;-139.81
8533;BMP280;4304;53.876;10.662;2022-07-29T09:08:42;117295.69;;;-139.81
8533;BMP280;4304;53.876;10.662;2022-07-29T09:11:08;117295.69;;;-139.81
8533;BMP280;4304;53.876;10.662;2022-07-29T09:13:35;117295.69;;;-139.81
8533;BMP280;4304;53.876;10.662;2022-07-29T09:16:01;117295.69;;;-139.81
8533;BMP280;4304;53.876;10.662;2022-07-29T09:18:39;117295.69;;;-139.81
8533;BMP280;4304;53.876;10.662;2022-07-29T09:21:07;117295.69;;;-139.81
8533;BMP280;4304;53.876;10.662;2022-07-29T09:24:18;117295.69;;;-139.81
8533;BMP280;4304;53.876;10.662;2022-07-29T09:26:45;117295.69;;;-139.81
8533;BMP280;4304;53.876;10.662;2022-07-29T09:29:14;117295.69;;;-139.81
8533;BMP280;4304;53.876;10.662;2022-07-29T09:31:43;117295.69;;;-139.81
8533;BMP280;4304;53.876;10.662;2022-07-29T09:34:10;117295.69;;;-139.81
8533;BMP280;4304;53.876;10.662;2022-07-29T09:36:47;117295.69;;;-139.81
8533;BMP280;4304;53.876;10.662;2022-07-29T09:39:13;117295.69;;;-139.81
8533;BMP280;4304;53.876;10.662;2022-07-29T09:41:52;117295.69;;;-139.81
8533;BMP280;4304;53.876;10.662;2022-07-29T09:44:23;117295.69;;;-139.81
8533;BMP280;4304;53.876;10.662;2022-07-29T09:47:03;117295.69;;;-139.81
8533;BMP280;4304;53.876;10.662;2022-07-29T09:49:34;117295.69;;;-139.81
8533;BMP280;4304;53.876;10.662;2022-07-29T09:52:06;117295.69;;;-139.81
8533;BMP280;4304;53.876;10.662;2022-07-29T09:54:32;117295.69;;;-139.81
8533;BMP280;4304;53.876;10.662;2022-07-29T09:57:06;117295.69;;;-139.81
8533;BMP280;4304;53.876;10.662;2022-07-29T09:59:32;117295.69;;;-139.81
8533;BMP280;4304;53.876;10.662;2022-07-29T10:01:58;117295.69;;;-139.81
8533;BMP280;4304;53.876;10.662;2022-07-29T10:04:36;117295.69;;;-139.81
8533;BMP280;4304;53.876;10.662;2022-07-29T10:07:02;117295.69;;;-139.81
8533;BMP280;4304;53.876;10.662;2022-07-29T10:09:30;117295.69;;;-139.81
8533;BMP280;4304;53.876;10.662;2022-07-29T10:12:12;117295.69;;;-139.81
8533;BMP280;4304;53.876;10.662;2022-07-29T10:14:41;117295.69;;;-139.81
8533;BMP280;4304;53.876;10.662;2022-07-29T10:17:13;117295.69;;;-139.81
8533;BMP280;4304;53.876;10.662;2022-07-29T10:19:38;117295.69;;;-139.81
8533;BMP280;4304;53.876;10.662;2022-07-29T10:22:06;117295.69;;;-139.81
8533;BMP280;4304;53.876;10.662;2022-07-29T10:24:39;117295.69;;;-139.81
8533;BMP280;4304;53.876;10.662;2022-07-29T10:27:07;117295.69;;;-139.81
8533;BMP280;4304;53.876;10.662;2022-07-29T10:29:33;117295.69;;;-139.81
8533;BMP280;4304;53.876;10.662;2022-07-29T10:35:01;117295.69;;;-139.81
8533;BMP280;4304;53.876;10.662;2022-07-29T10:38:04;117295.69;;;-139.81
8533;BMP280;4304;53.876;10.662;2022-07-29T10:41:01;117295.69;;;-139.81
8533;BMP280;4304;53.876;10.662;2022-07-29T10:43:48;117295.69;;;-139.81
8533;BMP280;4304;53.876;10.662;2022-07-29T10:46:17;117295.69;;;-139.81
8533;BMP280;4304;53.876;10.662;2022-07-29T10:57:26;117295.69;;;-139.81
8533;BMP280;4304;53.876;10.662;2022-07-29T11:05:17;117295.69;;;-139.81
8533;BMP280;4304;53.876;10.662;2022-07-29T11:10:45;117295.69;;;-139.81
8533;BMP280;4304;53.876;10.662;2022-07-29T11:16:16;117295.69;;;-139.81
8533;BMP280;4304;53.876;10.662;2022-07-29T11:21:36;117295.69;;;-139.81
8533;BMP280;4304;53.876;10.662;2022-07-29T11:24:15;117295.69;;;-139.81
8533;BMP280;4304;53.876;10.662;2022-07-29T11:26:41;117295.69;;;-139.81
8533;BMP280;4304;53.876;10.662;2022-07-29T11:31:47;117295.69;;;-139.81
8533;BMP280;4304;53.876;10.662;2022-07-29T11:34:27;117295.69;;;-139.81
8533;BMP280;4304;53.876;10.662;2022-07-29T11:44:57;117295.69;;;-139.81
8533;BMP280;4304;53.876;10.662;2022-07-29T11:47:27;117295.69;;;-139.81
8533;BMP280;4304;53.876;10.662;2022-07-29T11:49:57;117295.69;;;-139.81
8533;BMP280;4304;53.876;10.662;2022-07-29T11:52:23;117295.69;;;-139.81
8533;BMP280;4304;53.876;10.662;2022-07-29T11:54:57;117295.69;;;-139.81
8533;BMP280;4304;53.876;10.662;2022-07-29T11:57:23;117295.69;;;-139.81
8533;BMP280;4304;53.876;10.662;2022-07-29T11:59:50;117295.69;;;-139.81
8533;BMP280;4304;53.876;10.662;2022-07-29T12:02:16;117295.69;;;-139.81
8533;BMP280;4304;53.876;10.662;2022-07-29T12:04:51;117295.69;;;-139.81
8533;BMP280;4304;53.876;10.662;2022-07-29T12:07:18;117295.69;;;-139.81
8533;BMP280;4304;53.876;10.662;2022-07-29T12:09:50;117295.69;;;-139.81
8533;BMP280;4304;53.876;10.662;2022-07-29T12:12:17;117295.69;;;-139.81
8533;BMP280;4304;53.876;10.662;2022-07-29T12:14:43;117295.69;;;-139.81
8533;BMP280;4304;53.876;10.662;2022-07-29T12:17:32;117295.69;;;-139.81
8533;BMP280;4304;53.876;10.662;2022-07-29T12:20:03;117295.69;;;-139.81
8533;BMP280;4304;53.876;10.662;2022-07-29T12:22:34;117295.69;;;-139.81
8533;BMP280;4304;53.876;10.662;2022-07-29T12:25:08;117295.69;;;-139.81
8533;BMP280;4304;53.876;10.662;2022-07-29T12:27:35;117295.69;;;-139.81
8533;BMP280;4304;53.876;10.662;2022-07-29T12:30:06;117295.69;;;-139.81
8533;BMP280;4304;53.876;10.662;2022-07-29T12:32:49;117295.69;;;-139.81
8533;BMP280;4304;53.876;10.662;2022-07-29T12:35:17;117295.69;;;-139.81
8533;BMP280;4304;53.876;10.662;2022-07-29T12:37:46;117295.69;;;-139.81
8533;BMP280;4304;53.876;10.662;2022-07-29T12:40:16;117295.69;;;-139.81
8533;BMP280;4304;53.876;10.662;2022-07-29T12:43:08;117295.69;;;-139.81
8533;BMP280;4304;53.876;10.662;2022-07-29T12:45:35;117295.69;;;-139.81
8533;BMP280;4304;53.876;10.662;2022-07-29T12:48:01;117295.69;;;-139.81
8533;BMP280;4304;53.876;10.662;2022-07-29T12:50:27;117295.69;;;-139.81
8533;BMP280;4304;53.876;10.662;2022-07-29T12:52:52;117295.69;;;-139.81
8533;BMP280;4304;53.876;10.662;2022-07-29T12:55:44;117295.69;;;-139.81
8533;BMP280;4304;53.876;10.662;2022-07-29T12:58:10;117293.66;;;-139.81
8533;BMP280;4304;53.876;10.662;2022-07-29T13:00:36;117295.69;;;-139.81
8533;BMP280;4304;53.876;10.662;2022-07-29T13:03:01;117293.66;;;-139.81
8533;BMP280;4304;53.876;10.662;2022-07-29T13:05:43;117293.66;;;-139.81
8533;BMP280;4304;53.876;10.662;2022-07-29T13:08:14;117293.66;;;-139.81
8533;BMP280;4304;53.876;10.662;2022-07-29T13:10:40;117293.66;;;-139.81
8533;BMP280;4304;53.876;10.662;2022-07-29T13:13:14;117293.66;;;-139.81
8533;BMP280;4304;53.876;10.662;2022-07-29T13:15:42;117293.66;;;-139.81
8533;BMP280;4304;53.876;10.662;2022-07-29T13:18:30;117293.66;;;-139.81
8533;BMP280;4304;53.876;10.662;2022-07-29T13:20:56;117293.66;;;-139.81
8533;BMP280;4304;53.876;10.662;2022-07-29T13:23:22;117293.66;;;-139.81
8533;BMP280;4304;53.876;10.662;2022-07-29T13:25:47;117293.66;;;-139.81
8533;BMP280;4304;53.876;10.662;2022-07-29T13:28:13;117293.66;;;-139.81
8533;BMP280;4304;53.876;10.662;2022-07-29T13:30:41;117293.66;;;-139.81
8533;BMP280;4304;53.876;10.662;2022-07-29T13:33:07;117293.66;;;-139.81
8533;BMP280;4304;53.876;10.662;2022-07-29T13:35:32;117293.66;;;-139.81
8533;BMP280;4304;53.876;10.662;2022-07-29T13:37:58;117293.66;;;-139.81
8533;BMP280;4304;53.876;10.662;2022-07-29T13:40:23;117293.66;;;-139.81
8533;BMP280;4304;53.876;10.662;2022-07-29T13:42:49;117293.66;;;-139.81
8533;BMP280;4304;53.876;10.662;2022-07-29T13:45:15;117293.66;;;-139.81
8533;BMP280;4304;53.876;10.662;2022-07-29T13:47:40;117293.66;;;-139.81
8533;BMP280;4304;53.876;10.662;2022-07-29T13:50:07;117293.66;;;-139.81
8533;BMP280;4304;53.876;10.662;2022-07-29T13:52:36;117293.66;;;-139.81
8533;BMP280;4304;53.876;10.662;2022-07-29T13:55:04;117293.66;;;-139.81
8533;BMP280;4304;53.876;10.662;2022-07-29T13:57:36;117295.69;;;-139.81
8533;BMP280;4304;53.876;10.662;2022-07-29T14:00:02;117295.69;;;-139.81
8533;BMP280;4304;53.876;10.662;2022-07-29T14:02:29;117295.69;;;-139.81
8533;BMP280;4304;53.876;10.662;2022-07-29T14:04:54;117295.69;;;-139.81
8533;BMP280;4304;53.876;10.662;2022-07-29T14:07:19;117293.66;;;-139.81
8533;BMP280;4304;53.876;10.662;2022-07-29T14:09:45;117293.66;;;-139.81
8533;BMP280;4304;53.876;10.662;2022-07-29T14:12:11;117293.66;;;-139.81
8533;BMP280;4304;53.876;10.662;2022-07-29T14:14:37;117293.66;;;-139.81
8533;BMP280;4304;53.876;10.662;2022-07-29T14:17:02;117293.66;;;-139.81
8533;BMP280;4304;53.876;10.662;2022-07-29T14:19:29;117293.66;;;-139.81
8533;BMP280;4304;53.876;10.662;2022-07-29T14:21:54;117293.66;;;-139.81
8533;BMP280;4304;53.876;10.662;2022-07-29T14:24:21;117295.69;;;-139.81
8533;BMP280;4304;53.876;10.662;2022-07-29T14:26:46;117295.69;;;-139.81
8533;BMP280;4304;53.876;10.662;2022-07-29T14:29:12;117295.69;;;-139.81
8533;BMP280;4304;53.876;10.662;2022-07-29T14:31:37;117295.69;;;-139.81
8533;BMP280;4304;53.876;10.662;2022-07-29T14:34:03;117295.69;;;-139.81
8533;BMP280;4304;53.876;10.662;2022-07-29T14:36:28;117293.66;;;-139.81
8533;BMP280;4304;53.876;10.662;2022-07-29T14:38:53;117293.66;;;-139.81